sensor_id;sensor_type;location;lat;lon;timestamp;P1;durP1;ratioP1;P2;durP2;ratioP2
11931;SDS011;6025;51.368;6.788;2022-12-07T00:02:25;13.33;;;10.37;;
11931;SDS011;6025;51.368;6.788;2022-12-07T00:07:17;14.73;;;10.83;;
11931;SDS011;6025;51.368;6.788;2022-12-07T00:12:10;12.43;;;10.90;;
11931;SDS011;6025;51.368;6.788;2022-12-07T00:17:01;14.40;;;11.33;;
11931;SDS011;6025;51.368;6.788;2022-12-07T00:21:53;13.40;;;10.90;;
11931;SDS011;6025;51.368;6.788;2022-12-07T00:26:44;14.50;;;11.00;;
11931;SDS011;6025;51.368;6.788;2022-12-07T00:31:37;12.20;;;10.83;;
11931;SDS011;6025;51.368;6.788;2022-12-07T00:36:29;12.80;;;10.57;;
11931;SDS011;6025;51.368;6.788;2022-12-07T00:41:21;13.97;;;10.77;;
11931;SDS011;6025;51.368;6.788;2022-12-07T00:46:14;13.00;;;10.80;;
11931;SDS011;6025;51.368;6.788;2022-12-07T00:51:07;15.10;;;11.37;;
11931;SDS011;6025;51.368;6.788;2022-12-07T00:56:04;14.10;;;11.10;;
11931;SDS011;6025;51.368;6.788;2022-12-07T01:00:56;13.60;;;10.50;;
11931;SDS011;6025;51.368;6.788;2022-12-07T01:05:51;10.77;;;9.67;;
11931;SDS011;6025;51.368;6.788;2022-12-07T01:10:45;11.57;;;10.37;;
11931;SDS011;6025;51.368;6.788;2022-12-07T01:15:38;13.27;;;10.57;;
11931;SDS011;6025;51.368;6.788;2022-12-07T01:20:30;13.60;;;11.13;;
11931;SDS011;6025;51.368;6.788;2022-12-07T01:25:21;14.83;;;10.93;;
11931;SDS011;6025;51.368;6.788;2022-12-07T01:30:14;14.23;;;11.87;;
11931;SDS011;6025;51.368;6.788;2022-12-07T01:35:06;16.40;;;10.93;;
11931;SDS011;6025;51.368;6.788;2022-12-07T01:39:58;17.77;;;11.53;;
11931;SDS011;6025;51.368;6.788;2022-12-07T01:50:25;14.23;;;11.00;;
11931;SDS011;6025;51.368;6.788;2022-12-07T01:55:18;13.87;;;10.63;;
11931;SDS011;6025;51.368;6.788;2022-12-07T02:00:11;12.00;;;10.27;;
11931;SDS011;6025;51.368;6.788;2022-12-07T02:05:04;12.33;;;11.03;;
11931;SDS011;6025;51.368;6.788;2022-12-07T02:09:57;15.03;;;10.53;;
11931;SDS011;6025;51.368;6.788;2022-12-07T02:14:48;13.57;;;9.97;;
11931;SDS011;6025;51.368;6.788;2022-12-07T02:25:07;11.37;;;10.03;;
11931;SDS011;6025;51.368;6.788;2022-12-07T02:30:03;14.00;;;10.23;;
11931;SDS011;6025;51.368;6.788;2022-12-07T02:34:56;12.73;;;11.03;;
11931;SDS011;6025;51.368;6.788;2022-12-07T02:39:50;11.50;;;9.70;;
11931;SDS011;6025;51.368;6.788;2022-12-07T02:44:45;12.97;;;11.07;;
11931;SDS011;6025;51.368;6.788;2022-12-07T02:49:39;14.10;;;10.00;;
11931;SDS011;6025;51.368;6.788;2022-12-07T02:54:30;11.57;;;10.37;;
11931;SDS011;6025;51.368;6.788;2022-12-07T02:59:25;12.77;;;10.33;;
11931;SDS011;6025;51.368;6.788;2022-12-07T03:04:25;12.67;;;9.87;;
11931;SDS011;6025;51.368;6.788;2022-12-07T03:09:26;13.07;;;9.83;;
11931;SDS011;6025;51.368;6.788;2022-12-07T03:14:21;13.50;;;10.73;;
11931;SDS011;6025;51.368;6.788;2022-12-07T03:19:15;14.63;;;11.07;;
11931;SDS011;6025;51.368;6.788;2022-12-07T03:24:09;12.67;;;10.13;;
11931;SDS011;6025;51.368;6.788;2022-12-07T03:29:05;14.93;;;10.63;;
11931;SDS011;6025;51.368;6.788;2022-12-07T03:33:59;13.20;;;10.97;;
11931;SDS011;6025;51.368;6.788;2022-12-07T03:38:54;14.47;;;10.63;;
11931;SDS011;6025;51.368;6.788;2022-12-07T03:43:49;11.90;;;9.57;;
11931;SDS011;6025;51.368;6.788;2022-12-07T03:48:43;17.10;;;11.10;;
11931;SDS011;6025;51.368;6.788;2022-12-07T03:53:39;18.33;;;11.87;;
11931;SDS011;6025;51.368;6.788;2022-12-07T03:58:33;14.63;;;11.13;;
11931;SDS011;6025;51.368;6.788;2022-12-07T04:03:25;13.13;;;11.17;;
11931;SDS011;6025;51.368;6.788;2022-12-07T04:08:18;16.20;;;12.37;;
11931;SDS011;6025;51.368;6.788;2022-12-07T04:13:09;17.40;;;11.97;;
11931;SDS011;6025;51.368;6.788;2022-12-07T04:18:01;14.13;;;11.23;;
11931;SDS011;6025;51.368;6.788;2022-12-07T04:22:52;14.47;;;11.37;;
11931;SDS011;6025;51.368;6.788;2022-12-07T04:27:45;13.43;;;10.10;;
11931;SDS011;6025;51.368;6.788;2022-12-07T04:32:37;13.73;;;10.57;;
11931;SDS011;6025;51.368;6.788;2022-12-07T04:37:28;14.90;;;9.53;;
11931;SDS011;6025;51.368;6.788;2022-12-07T04:42:20;14.47;;;10.03;;
11931;SDS011;6025;51.368;6.788;2022-12-07T04:47:13;11.77;;;9.43;;
11931;SDS011;6025;51.368;6.788;2022-12-07T04:52:04;14.03;;;9.93;;
11931;SDS011;6025;51.368;6.788;2022-12-07T04:56:56;12.33;;;9.87;;
11931;SDS011;6025;51.368;6.788;2022-12-07T05:01:47;11.93;;;9.43;;
11931;SDS011;6025;51.368;6.788;2022-12-07T05:06:40;12.63;;;9.57;;
11931;SDS011;6025;51.368;6.788;2022-12-07T05:11:32;10.63;;;9.30;;
11931;SDS011;6025;51.368;6.788;2022-12-07T05:16:29;10.77;;;8.93;;
11931;SDS011;6025;51.368;6.788;2022-12-07T05:21:21;10.27;;;9.07;;
11931;SDS011;6025;51.368;6.788;2022-12-07T05:26:14;10.93;;;8.97;;
11931;SDS011;6025;51.368;6.788;2022-12-07T05:31:05;11.47;;;8.90;;
11931;SDS011;6025;51.368;6.788;2022-12-07T05:35:57;14.40;;;9.13;;
11931;SDS011;6025;51.368;6.788;2022-12-07T05:40:48;12.80;;;8.83;;
11931;SDS011;6025;51.368;6.788;2022-12-07T05:45:41;11.73;;;8.67;;
11931;SDS011;6025;51.368;6.788;2022-12-07T05:50:32;11.63;;;8.10;;
11931;SDS011;6025;51.368;6.788;2022-12-07T05:55:24;9.07;;;8.03;;
11931;SDS011;6025;51.368;6.788;2022-12-07T06:00:16;10.43;;;7.73;;
11931;SDS011;6025;51.368;6.788;2022-12-07T06:05:09;10.50;;;7.47;;
11931;SDS011;6025;51.368;6.788;2022-12-07T06:10:00;11.27;;;7.67;;
11931;SDS011;6025;51.368;6.788;2022-12-07T06:14:52;9.37;;;7.87;;
11931;SDS011;6025;51.368;6.788;2022-12-07T06:19:43;8.70;;;7.40;;
11931;SDS011;6025;51.368;6.788;2022-12-07T06:24:36;10.43;;;7.20;;
11931;SDS011;6025;51.368;6.788;2022-12-07T06:29:28;9.70;;;7.07;;
11931;SDS011;6025;51.368;6.788;2022-12-07T06:34:20;8.90;;;6.70;;
11931;SDS011;6025;51.368;6.788;2022-12-07T06:39:13;9.77;;;6.73;;
11931;SDS011;6025;51.368;6.788;2022-12-07T06:44:06;10.47;;;7.10;;
11931;SDS011;6025;51.368;6.788;2022-12-07T06:48:58;11.17;;;6.43;;
11931;SDS011;6025;51.368;6.788;2022-12-07T06:53:49;10.07;;;6.73;;
11931;SDS011;6025;51.368;6.788;2022-12-07T06:58:41;9.53;;;6.57;;
11931;SDS011;6025;51.368;6.788;2022-12-07T07:03:33;9.80;;;6.73;;
11931;SDS011;6025;51.368;6.788;2022-12-07T07:08:25;8.13;;;6.93;;
11931;SDS011;6025;51.368;6.788;2022-12-07T07:13:16;11.60;;;6.57;;
11931;SDS011;6025;51.368;6.788;2022-12-07T07:18:08;9.17;;;7.87;;
11931;SDS011;6025;51.368;6.788;2022-12-07T07:23:01;11.60;;;7.50;;
11931;SDS011;6025;51.368;6.788;2022-12-07T07:27:53;9.53;;;7.67;;
11931;SDS011;6025;51.368;6.788;2022-12-07T07:32:44;14.30;;;8.33;;
11931;SDS011;6025;51.368;6.788;2022-12-07T07:37:36;9.93;;;7.43;;
11931;SDS011;6025;51.368;6.788;2022-12-07T07:42:29;13.47;;;7.83;;
11931;SDS011;6025;51.368;6.788;2022-12-07T07:47:20;12.63;;;7.90;;
11931;SDS011;6025;51.368;6.788;2022-12-07T07:52:12;10.40;;;7.63;;
11931;SDS011;6025;51.368;6.788;2022-12-07T07:57:03;10.03;;;8.57;;
11931;SDS011;6025;51.368;6.788;2022-12-07T08:01:56;11.37;;;7.90;;
11931;SDS011;6025;51.368;6.788;2022-12-07T08:06:47;13.10;;;8.47;;
11931;SDS011;6025;51.368;6.788;2022-12-07T08:11:39;11.30;;;8.80;;
11931;SDS011;6025;51.368;6.788;2022-12-07T08:16:30;10.80;;;7.90;;
11931;SDS011;6025;51.368;6.788;2022-12-07T08:21:23;11.10;;;7.70;;
11931;SDS011;6025;51.368;6.788;2022-12-07T08:26:15;10.67;;;8.03;;
11931;SDS011;6025;51.368;6.788;2022-12-07T08:31:08;10.03;;;7.13;;
11931;SDS011;6025;51.368;6.788;2022-12-07T08:36:02;11.97;;;7.77;;
11931;SDS011;6025;51.368;6.788;2022-12-07T08:40:57;12.67;;;6.80;;
11931;SDS011;6025;51.368;6.788;2022-12-07T08:45:49;13.50;;;7.70;;
11931;SDS011;6025;51.368;6.788;2022-12-07T08:50:44;11.47;;;7.10;;
11931;SDS011;6025;51.368;6.788;2022-12-07T08:55:36;12.67;;;7.50;;
11931;SDS011;6025;51.368;6.788;2022-12-07T09:00:28;11.90;;;6.37;;
11931;SDS011;6025;51.368;6.788;2022-12-07T09:05:20;8.57;;;6.67;;
11931;SDS011;6025;51.368;6.788;2022-12-07T09:10:11;15.33;;;7.07;;
11931;SDS011;6025;51.368;6.788;2022-12-07T09:15:03;11.43;;;6.50;;
11931;SDS011;6025;51.368;6.788;2022-12-07T09:19:57;12.17;;;6.47;;
11931;SDS011;6025;51.368;6.788;2022-12-07T09:24:48;10.07;;;6.23;;
11931;SDS011;6025;51.368;6.788;2022-12-07T09:29:40;12.73;;;6.90;;
11931;SDS011;6025;51.368;6.788;2022-12-07T09:34:31;10.87;;;5.57;;
11931;SDS011;6025;51.368;6.788;2022-12-07T09:39:24;8.30;;;4.70;;
11931;SDS011;6025;51.368;6.788;2022-12-07T09:44:18;7.83;;;4.20;;
11931;SDS011;6025;51.368;6.788;2022-12-07T09:49:12;8.27;;;3.90;;
11931;SDS011;6025;51.368;6.788;2022-12-07T09:54:07;7.37;;;3.70;;
11931;SDS011;6025;51.368;6.788;2022-12-07T09:59:02;7.53;;;3.60;;
11931;SDS011;6025;51.368;6.788;2022-12-07T10:03:55;4.73;;;3.33;;
11931;SDS011;6025;51.368;6.788;2022-12-07T10:08:51;9.70;;;3.50;;
11931;SDS011;6025;51.368;6.788;2022-12-07T10:13:43;6.43;;;3.63;;
11931;SDS011;6025;51.368;6.788;2022-12-07T10:18:40;9.13;;;4.20;;
11931;SDS011;6025;51.368;6.788;2022-12-07T10:23:32;5.57;;;4.10;;
11931;SDS011;6025;51.368;6.788;2022-12-07T10:28:27;7.70;;;4.27;;
11931;SDS011;6025;51.368;6.788;2022-12-07T10:33:29;8.20;;;4.20;;
11931;SDS011;6025;51.368;6.788;2022-12-07T10:38:23;6.53;;;4.00;;
11931;SDS011;6025;51.368;6.788;2022-12-07T10:43:17;8.83;;;4.47;;
11931;SDS011;6025;51.368;6.788;2022-12-07T10:48:10;13.20;;;5.50;;
11931;SDS011;6025;51.368;6.788;2022-12-07T10:58:37;9.27;;;5.80;;
11931;SDS011;6025;51.368;6.788;2022-12-07T11:03:41;9.53;;;5.03;;
11931;SDS011;6025;51.368;6.788;2022-12-07T11:08:47;11.00;;;4.10;;
11931;SDS011;6025;51.368;6.788;2022-12-07T11:13:48;5.63;;;2.80;;
11931;SDS011;6025;51.368;6.788;2022-12-07T11:18:46;8.90;;;3.30;;
11931;SDS011;6025;51.368;6.788;2022-12-07T11:23:46;4.60;;;2.90;;
11931;SDS011;6025;51.368;6.788;2022-12-07T11:28:49;9.07;;;2.67;;
11931;SDS011;6025;51.368;6.788;2022-12-07T11:33:52;4.93;;;2.60;;
11931;SDS011;6025;51.368;6.788;2022-12-07T11:38:45;6.00;;;2.40;;
11931;SDS011;6025;51.368;6.788;2022-12-07T11:43:46;6.37;;;2.57;;
11931;SDS011;6025;51.368;6.788;2022-12-07T11:48:45;6.67;;;2.13;;
11931;SDS011;6025;51.368;6.788;2022-12-07T11:53:38;4.50;;;2.57;;
11931;SDS011;6025;51.368;6.788;2022-12-07T11:58:40;10.27;;;3.00;;
11931;SDS011;6025;51.368;6.788;2022-12-07T12:03:40;5.40;;;2.33;;
11931;SDS011;6025;51.368;6.788;2022-12-07T12:08:34;5.10;;;2.20;;
11931;SDS011;6025;51.368;6.788;2022-12-07T12:18:58;4.53;;;2.80;;
11931;SDS011;6025;51.368;6.788;2022-12-07T12:24:02;4.93;;;2.57;;
11931;SDS011;6025;51.368;6.788;2022-12-07T12:28:56;5.90;;;3.03;;
11931;SDS011;6025;51.368;6.788;2022-12-07T12:33:50;6.17;;;2.87;;
11931;SDS011;6025;51.368;6.788;2022-12-07T12:38:50;5.17;;;1.80;;
11931;SDS011;6025;51.368;6.788;2022-12-07T12:43:45;4.30;;;1.80;;
11931;SDS011;6025;51.368;6.788;2022-12-07T12:48:39;4.53;;;1.50;;
11931;SDS011;6025;51.368;6.788;2022-12-07T12:53:32;6.50;;;1.13;;
11931;SDS011;6025;51.368;6.788;2022-12-07T12:58:39;2.53;;;1.20;;
11931;SDS011;6025;51.368;6.788;2022-12-07T13:03:33;1.90;;;1.00;;
11931;SDS011;6025;51.368;6.788;2022-12-07T13:08:26;3.87;;;1.70;;
11931;SDS011;6025;51.368;6.788;2022-12-07T13:13:28;7.27;;;1.80;;
11931;SDS011;6025;51.368;6.788;2022-12-07T13:18:23;7.33;;;2.30;;
11931;SDS011;6025;51.368;6.788;2022-12-07T13:23:16;7.20;;;3.00;;
11931;SDS011;6025;51.368;6.788;2022-12-07T13:28:12;7.50;;;3.27;;
11931;SDS011;6025;51.368;6.788;2022-12-07T13:33:09;5.77;;;2.80;;
11931;SDS011;6025;51.368;6.788;2022-12-07T13:38:01;4.50;;;3.03;;
11931;SDS011;6025;51.368;6.788;2022-12-07T13:42:57;5.40;;;2.40;;
11931;SDS011;6025;51.368;6.788;2022-12-07T13:47:51;5.60;;;2.27;;
11931;SDS011;6025;51.368;6.788;2022-12-07T13:52:45;3.97;;;2.40;;
11931;SDS011;6025;51.368;6.788;2022-12-07T13:57:38;4.53;;;2.07;;
11931;SDS011;6025;51.368;6.788;2022-12-07T14:02:31;3.63;;;1.80;;
11931;SDS011;6025;51.368;6.788;2022-12-07T14:07:24;5.20;;;1.63;;
11931;SDS011;6025;51.368;6.788;2022-12-07T14:12:18;4.80;;;1.50;;
11931;SDS011;6025;51.368;6.788;2022-12-07T14:17:12;3.53;;;1.60;;
11931;SDS011;6025;51.368;6.788;2022-12-07T14:22:06;3.97;;;1.50;;
11931;SDS011;6025;51.368;6.788;2022-12-07T14:26:58;5.63;;;1.83;;
11931;SDS011;6025;51.368;6.788;2022-12-07T14:31:51;4.03;;;2.10;;
11931;SDS011;6025;51.368;6.788;2022-12-07T14:36:43;5.17;;;2.40;;
11931;SDS011;6025;51.368;6.788;2022-12-07T14:41:35;5.23;;;2.40;;
11931;SDS011;6025;51.368;6.788;2022-12-07T14:46:41;5.40;;;2.70;;
11931;SDS011;6025;51.368;6.788;2022-12-07T14:51:34;4.63;;;2.60;;
11931;SDS011;6025;51.368;6.788;2022-12-07T14:56:27;5.63;;;2.40;;
11931;SDS011;6025;51.368;6.788;2022-12-07T15:01:18;4.80;;;2.37;;
11931;SDS011;6025;51.368;6.788;2022-12-07T15:06:13;3.87;;;2.17;;
11931;SDS011;6025;51.368;6.788;2022-12-07T15:11:08;5.97;;;2.33;;
11931;SDS011;6025;51.368;6.788;2022-12-07T15:16:00;7.00;;;2.37;;
11931;SDS011;6025;51.368;6.788;2022-12-07T15:20:52;4.00;;;2.30;;
11931;SDS011;6025;51.368;6.788;2022-12-07T15:25:43;4.60;;;2.50;;
11931;SDS011;6025;51.368;6.788;2022-12-07T15:30:37;5.33;;;3.23;;
11931;SDS011;6025;51.368;6.788;2022-12-07T15:35:29;9.37;;;3.53;;
11931;SDS011;6025;51.368;6.788;2022-12-07T15:40:21;5.90;;;3.10;;
11931;SDS011;6025;51.368;6.788;2022-12-07T15:45:12;5.93;;;3.30;;
11931;SDS011;6025;51.368;6.788;2022-12-07T15:50:07;11.00;;;4.63;;
11931;SDS011;6025;51.368;6.788;2022-12-07T15:55:00;8.03;;;3.60;;
11931;SDS011;6025;51.368;6.788;2022-12-07T15:59:52;7.00;;;3.77;;
11931;SDS011;6025;51.368;6.788;2022-12-07T16:04:44;4.77;;;3.20;;
11931;SDS011;6025;51.368;6.788;2022-12-07T16:09:37;10.33;;;4.63;;
11931;SDS011;6025;51.368;6.788;2022-12-07T16:14:29;6.60;;;3.90;;
11931;SDS011;6025;51.368;6.788;2022-12-07T16:19:22;5.47;;;3.73;;
11931;SDS011;6025;51.368;6.788;2022-12-07T16:24:15;7.77;;;3.87;;
11931;SDS011;6025;51.368;6.788;2022-12-07T16:29:09;7.80;;;3.83;;
11931;SDS011;6025;51.368;6.788;2022-12-07T16:34:02;8.97;;;4.20;;
11931;SDS011;6025;51.368;6.788;2022-12-07T16:38:53;8.80;;;4.30;;
11931;SDS011;6025;51.368;6.788;2022-12-07T16:43:45;8.27;;;3.43;;
11931;SDS011;6025;51.368;6.788;2022-12-07T16:48:38;7.60;;;3.07;;
11931;SDS011;6025;51.368;6.788;2022-12-07T16:53:30;4.73;;;2.50;;
11931;SDS011;6025;51.368;6.788;2022-12-07T16:58:22;5.00;;;2.50;;
11931;SDS011;6025;51.368;6.788;2022-12-07T17:03:14;6.07;;;2.90;;
11931;SDS011;6025;51.368;6.788;2022-12-07T17:08:08;8.17;;;2.97;;
11931;SDS011;6025;51.368;6.788;2022-12-07T17:13:00;9.13;;;3.50;;
11931;SDS011;6025;51.368;6.788;2022-12-07T17:17:52;7.30;;;3.20;;
11931;SDS011;6025;51.368;6.788;2022-12-07T17:22:45;5.87;;;3.60;;
11931;SDS011;6025;51.368;6.788;2022-12-07T17:27:38;5.57;;;3.67;;
11931;SDS011;6025;51.368;6.788;2022-12-07T17:32:30;5.90;;;3.50;;
11931;SDS011;6025;51.368;6.788;2022-12-07T17:37:22;8.67;;;4.10;;
11931;SDS011;6025;51.368;6.788;2022-12-07T17:42:13;8.23;;;4.37;;
11931;SDS011;6025;51.368;6.788;2022-12-07T17:47:24;7.00;;;4.63;;
11931;SDS011;6025;51.368;6.788;2022-12-07T17:52:16;6.70;;;4.17;;
11931;SDS011;6025;51.368;6.788;2022-12-07T17:57:25;8.17;;;4.30;;
11931;SDS011;6025;51.368;6.788;2022-12-07T18:02:16;8.23;;;4.67;;
11931;SDS011;6025;51.368;6.788;2022-12-07T18:07:09;8.57;;;4.80;;
11931;SDS011;6025;51.368;6.788;2022-12-07T18:12:01;6.47;;;4.23;;
11931;SDS011;6025;51.368;6.788;2022-12-07T18:16:55;6.60;;;4.90;;
11931;SDS011;6025;51.368;6.788;2022-12-07T18:21:47;7.13;;;3.97;;
11931;SDS011;6025;51.368;6.788;2022-12-07T18:26:40;8.13;;;4.90;;
11931;SDS011;6025;51.368;6.788;2022-12-07T18:31:32;6.10;;;4.80;;
11931;SDS011;6025;51.368;6.788;2022-12-07T18:36:25;5.23;;;4.00;;
11931;SDS011;6025;51.368;6.788;2022-12-07T18:41:16;7.70;;;4.37;;
11931;SDS011;6025;51.368;6.788;2022-12-07T18:46:11;6.07;;;4.63;;
11931;SDS011;6025;51.368;6.788;2022-12-07T18:51:03;8.63;;;5.00;;
11931;SDS011;6025;51.368;6.788;2022-12-07T18:56:02;8.30;;;5.57;;
11931;SDS011;6025;51.368;6.788;2022-12-07T19:00:55;8.60;;;5.80;;
11931;SDS011;6025;51.368;6.788;2022-12-07T19:05:49;6.97;;;5.63;;
11931;SDS011;6025;51.368;6.788;2022-12-07T19:10:41;10.10;;;6.70;;
11931;SDS011;6025;51.368;6.788;2022-12-07T19:15:32;8.17;;;6.73;;
11931;SDS011;6025;51.368;6.788;2022-12-07T19:20:24;7.50;;;6.77;;
11931;SDS011;6025;51.368;6.788;2022-12-07T19:25:18;12.00;;;7.37;;
11931;SDS011;6025;51.368;6.788;2022-12-07T19:30:09;8.30;;;7.47;;
11931;SDS011;6025;51.368;6.788;2022-12-07T19:35:02;12.37;;;7.27;;
11931;SDS011;6025;51.368;6.788;2022-12-07T19:39:54;11.10;;;7.90;;
11931;SDS011;6025;51.368;6.788;2022-12-07T19:44:47;9.73;;;7.90;;
11931;SDS011;6025;51.368;6.788;2022-12-07T19:49:39;10.20;;;7.60;;
11931;SDS011;6025;51.368;6.788;2022-12-07T19:54:30;9.37;;;7.77;;
11931;SDS011;6025;51.368;6.788;2022-12-07T19:59:23;8.60;;;6.80;;
11931;SDS011;6025;51.368;6.788;2022-12-07T20:04:18;11.97;;;8.20;;
11931;SDS011;6025;51.368;6.788;2022-12-07T20:09:13;13.43;;;8.00;;
11931;SDS011;6025;51.368;6.788;2022-12-07T20:14:05;11.63;;;8.83;;
11931;SDS011;6025;51.368;6.788;2022-12-07T20:18:57;11.83;;;8.47;;
11931;SDS011;6025;51.368;6.788;2022-12-07T20:23:51;15.87;;;9.57;;
11931;SDS011;6025;51.368;6.788;2022-12-07T20:28:42;12.87;;;10.03;;
11931;SDS011;6025;51.368;6.788;2022-12-07T20:33:35;12.30;;;9.97;;
11931;SDS011;6025;51.368;6.788;2022-12-07T20:38:27;12.47;;;10.57;;
11931;SDS011;6025;51.368;6.788;2022-12-07T20:43:22;14.77;;;10.90;;
11931;SDS011;6025;51.368;6.788;2022-12-07T20:48:14;12.97;;;10.67;;
11931;SDS011;6025;51.368;6.788;2022-12-07T20:53:06;11.70;;;9.87;;
11931;SDS011;6025;51.368;6.788;2022-12-07T20:57:58;16.10;;;10.57;;
11931;SDS011;6025;51.368;6.788;2022-12-07T21:02:51;13.70;;;10.47;;
11931;SDS011;6025;51.368;6.788;2022-12-07T21:07:42;16.80;;;9.47;;
11931;SDS011;6025;51.368;6.788;2022-12-07T21:12:34;12.47;;;8.97;;
11931;SDS011;6025;51.368;6.788;2022-12-07T21:17:25;12.97;;;9.03;;
11931;SDS011;6025;51.368;6.788;2022-12-07T21:22:18;14.20;;;9.10;;
11931;SDS011;6025;51.368;6.788;2022-12-07T21:27:10;12.37;;;8.53;;
11931;SDS011;6025;51.368;6.788;2022-12-07T21:32:02;13.07;;;8.00;;
11931;SDS011;6025;51.368;6.788;2022-12-07T21:36:54;10.63;;;8.37;;
11931;SDS011;6025;51.368;6.788;2022-12-07T21:41:47;9.53;;;7.70;;
11931;SDS011;6025;51.368;6.788;2022-12-07T21:46:38;11.37;;;8.10;;
11931;SDS011;6025;51.368;6.788;2022-12-07T21:51:30;12.73;;;8.57;;
11931;SDS011;6025;51.368;6.788;2022-12-07T21:56:23;12.80;;;8.23;;
11931;SDS011;6025;51.368;6.788;2022-12-07T22:01:17;12.50;;;9.60;;
11931;SDS011;6025;51.368;6.788;2022-12-07T22:06:11;13.07;;;9.37;;
11931;SDS011;6025;51.368;6.788;2022-12-07T22:11:03;14.00;;;9.90;;
11931;SDS011;6025;51.368;6.788;2022-12-07T22:15:55;12.90;;;9.47;;
11931;SDS011;6025;51.368;6.788;2022-12-07T22:20:48;14.87;;;10.27;;
11931;SDS011;6025;51.368;6.788;2022-12-07T22:25:39;13.73;;;10.60;;
11931;SDS011;6025;51.368;6.788;2022-12-07T22:30:31;13.13;;;10.73;;
11931;SDS011;6025;51.368;6.788;2022-12-07T22:35:22;15.03;;;11.00;;
11931;SDS011;6025;51.368;6.788;2022-12-07T22:40:15;13.77;;;10.53;;
11931;SDS011;6025;51.368;6.788;2022-12-07T22:45:08;12.53;;;10.30;;
11931;SDS011;6025;51.368;6.788;2022-12-07T22:49:59;13.10;;;10.30;;
11931;SDS011;6025;51.368;6.788;2022-12-07T22:54:51;17.17;;;10.43;;
11931;SDS011;6025;51.368;6.788;2022-12-07T22:59:44;15.27;;;9.97;;
11931;SDS011;6025;51.368;6.788;2022-12-07T23:04:35;11.87;;;9.67;;
11931;SDS011;6025;51.368;6.788;2022-12-07T23:09:27;14.33;;;10.47;;
11931;SDS011;6025;51.368;6.788;2022-12-07T23:14:19;14.50;;;9.83;;
11931;SDS011;6025;51.368;6.788;2022-12-07T23:19:13;12.70;;;10.33;;
11931;SDS011;6025;51.368;6.788;2022-12-07T23:24:05;13.70;;;11.20;;
11931;SDS011;6025;51.368;6.788;2022-12-07T23:28:57;15.17;;;13.37;;
11931;SDS011;6025;51.368;6.788;2022-12-07T23:33:49;13.53;;;11.03;;
11931;SDS011;6025;51.368;6.788;2022-12-07T23:38:42;11.77;;;10.33;;
11931;SDS011;6025;51.368;6.788;2022-12-07T23:43:34;11.30;;;9.30;;
11931;SDS011;6025;51.368;6.788;2022-12-07T23:48:26;11.53;;;9.67;;
11931;SDS011;6025;51.368;6.788;2022-12-07T23:53:17;14.00;;;9.97;;
11931;SDS011;6025;51.368;6.788;2022-12-07T23:58:10;11.50;;;9.33;;
